Time;durP1;ratioP1;P1;durP2;ratioP2;P2;SDS_P1;SDS_P2;PMS_P1;PMS_P2;Temp;Humidity;BMP_temperature;BMP_pressure;BME280_temperature;BME280_humidity;BME280_pressure;Samples;Min_cycle;Max_cycle;Signal;HPM_P1;HPM_P2
2022/12/23 00:01:15;;;;;;;9.35;4.22;;;14.60;99.90;;;;;;5073885;28;20477;-73
2022/12/23 00:03:41;;;;;;;9.57;3.70;;;14.50;99.90;;;;;;5075669;28;20524;-73
2022/12/23 00:06:10;;;;;;;9.65;4.35;;;14.60;99.90;;;;;;5075720;28;20039;-73
2022/12/23 00:08:36;;;;;;;10.38;4.10;;;14.50;99.90;;;;;;5075478;28;20021;-73
2022/12/23 00:11:03;;;;;;;11.65;4.40;;;14.40;99.90;;;;;;5075319;28;20074;-73
2022/12/23 00:16:14;;;;;;;8.50;3.33;;;14.50;99.90;;;;;;5075421;28;20031;-73
2022/12/23 00:18:40;;;;;;;8.90;3.40;;;14.50;99.90;;;;;;5075515;28;20017;-73
2022/12/23 00:21:09;;;;;;;9.23;3.35;;;14.40;99.90;;;;;;5073983;28;20029;-73
2022/12/23 00:23:37;;;;;;;9.20;3.17;;;14.50;99.90;;;;;;5075477;28;20017;-73
2022/12/23 00:26:03;;;;;;;7.30;3.58;;;14.60;99.90;;;;;;5074847;28;20120;-73
2022/12/23 00:28:30;;;;;;;10.05;3.83;;;14.50;99.90;;;;;;5075131;28;20017;-73
2022/12/23 00:31:01;;;;;;;9.30;3.35;;;14.40;99.90;;;;;;5074930;28;20045;-73
2022/12/23 00:33:32;;;;;;;8.25;3.45;;;14.50;99.90;;;;;;5075090;28;20020;-73
2022/12/23 00:35:58;;;;;;;9.88;3.45;;;14.40;99.90;;;;;;5073844;28;20028;-73
2022/12/23 00:44:02;;;;;;;10.93;3.88;;;14.50;99.90;;;;;;5075061;28;20032;-73
2022/12/23 00:46:27;;;;;;;7.43;2.92;;;14.40;99.90;;;;;;5074948;28;20064;-73
2022/12/23 00:51:37;;;;;;;7.80;3.15;;;14.30;99.90;;;;;;5075109;28;20047;-73
2022/12/23 00:54:04;;;;;;;10.63;3.65;;;14.40;99.90;;;;;;5074574;28;20016;-72
2022/12/23 00:56:30;;;;;;;8.57;3.55;;;14.40;99.90;;;;;;5074768;28;20020;-72
2022/12/23 00:58:55;;;;;;;10.00;3.60;;;14.20;99.90;;;;;;5073452;28;20029;-72
2022/12/23 01:06:49;;;;;;;6.60;3.13;;;14.20;99.90;;;;;;5074569;28;20107;-72
2022/12/23 01:09:15;;;;;;;12.40;3.75;;;14.30;99.90;;;;;;5074155;28;20462;-72
2022/12/23 01:11:41;;;;;;;11.18;3.30;;;14.30;99.90;;;;;;5074018;28;20525;-72
2022/12/23 01:14:08;;;;;;;8.85;3.35;;;14.30;99.90;;;;;;5074236;28;20024;-71
2022/12/23 01:16:37;;;;;;;5.57;2.80;;;14.20;99.90;;;;;;5074521;28;20099;-72
2022/12/23 01:19:03;;;;;;;7.68;2.70;;;14.20;99.90;;;;;;5074088;28;20016;-72
2022/12/23 01:21:29;;;;;;;6.82;2.97;;;14.20;99.90;;;;;;5072952;28;20017;-72
2022/12/23 01:23:54;;;;;;;11.10;3.88;;;14.20;99.90;;;;;;5073791;28;20036;-72
2022/12/23 01:26:20;;;;;;;9.77;3.17;;;14.20;99.90;;;;;;5073878;28;20514;-72
2022/12/23 01:28:45;;;;;;;7.45;2.60;;;14.20;99.90;;;;;;5074031;28;20021;-72
2022/12/23 01:31:11;;;;;;;8.23;3.10;;;14.20;99.90;;;;;;5073847;28;20492;-72
2022/12/23 01:33:37;;;;;;;11.52;3.35;;;14.20;99.90;;;;;;5073832;28;20052;-72
2022/12/23 01:36:05;;;;;;;10.50;3.55;;;14.10;99.90;;;;;;5073832;28;20459;-72
2022/12/23 01:38:31;;;;;;;7.97;2.92;;;14.20;99.90;;;;;;5073489;28;20033;-71
2022/12/23 01:40:56;;;;;;;7.97;2.60;;;14.20;99.90;;;;;;5073748;28;20021;-72
2022/12/23 01:43:23;;;;;;;8.18;2.67;;;14.30;99.90;;;;;;5073705;28;20035;-72
2022/12/23 01:45:48;;;;;;;6.68;2.35;;;14.20;99.90;;;;;;5073431;28;20218;-72
2022/12/23 01:48:26;;;;;;;12.05;3.00;;;14.20;99.90;;;;;;5073801;28;20054;-72
2022/12/23 01:51:01;;;;;;;10.25;2.33;;;14.20;99.90;;;;;;5073484;28;20081;-72
2022/12/23 01:53:47;;;;;;;8.50;2.85;;;14.30;99.90;;;;;;5073282;28;20020;-72
2022/12/23 01:56:17;;;;;;;9.93;2.72;;;14.40;99.90;;;;;;5073060;28;20028;-72
2022/12/23 01:58:59;;;;;;;9.90;3.25;;;14.40;99.90;;;;;;5072860;28;20095;-72
2022/12/23 02:04:14;;;;;;;7.03;2.45;;;14.40;99.90;;;;;;5072633;28;20063;-71
2022/12/23 02:09:28;;;;;;;8.52;3.00;;;14.30;99.90;;;;;;5073653;28;20035;-72
2022/12/23 02:12:05;;;;;;;7.05;2.10;;;14.30;99.90;;;;;;5072836;28;20108;-72
2022/12/23 02:17:54;;;;;;;11.77;2.63;;;14.20;99.90;;;;;;5073197;28;20040;-72
2022/12/23 02:20:38;;;;;;;10.15;3.03;;;14.20;99.90;;;;;;5072406;28;20016;-71
2022/12/23 02:23:31;;;;;;;7.25;2.67;;;14.10;99.90;;;;;;5072270;28;20059;-71
2022/12/23 02:26:28;;;;;;;10.98;2.85;;;14.10;99.90;;;;;;5072614;28;20033;-71
2022/12/23 02:29:31;;;;;;;8.00;2.63;;;14.10;99.90;;;;;;5071459;28;20032;-71
2022/12/23 02:32:19;;;;;;;7.80;2.80;;;14.20;99.90;;;;;;5072524;28;20048;-72
2022/12/23 02:34:51;;;;;;;8.57;3.05;;;14.20;99.90;;;;;;5070867;28;20052;-72
2022/12/23 02:37:26;;;;;;;9.27;2.10;;;14.30;99.90;;;;;;5072557;28;20393;-71
2022/12/23 02:40:08;;;;;;;10.32;3.03;;;14.30;99.90;;;;;;5072751;28;20419;-71
2022/12/23 02:42:55;;;;;;;8.63;2.45;;;14.30;99.90;;;;;;5072664;28;20032;-72
2022/12/23 02:45:44;;;;;;;9.55;2.60;;;14.20;99.90;;;;;;5072430;28;20040;-71
2022/12/23 02:48:21;;;;;;;8.60;2.42;;;14.30;99.90;;;;;;5072581;28;20020;-71
2022/12/23 02:50:47;;;;;;;8.45;2.65;;;14.30;99.90;;;;;;5072167;28;20078;-72
2022/12/23 02:53:22;;;;;;;8.82;2.00;;;14.20;99.90;;;;;;5072377;28;20103;-71
2022/12/23 02:55:51;;;;;;;6.85;2.25;;;14.30;99.90;;;;;;5072478;28;20024;-71
2022/12/23 02:58:22;;;;;;;8.07;2.20;;;14.20;99.90;;;;;;5072304;28;20078;-72
2022/12/23 03:00:49;;;;;;;8.83;2.93;;;14.20;99.90;;;;;;5072486;28;20025;-71
2022/12/23 03:03:16;;;;;;;6.75;2.17;;;14.30;99.90;;;;;;5072285;28;20087;-72
2022/12/23 03:05:45;;;;;;;7.55;2.35;;;14.30;99.90;;;;;;5072068;28;20040;-72
2022/12/23 03:08:21;;;;;;;7.45;3.05;;;14.20;99.90;;;;;;5072367;28;20021;-72
2022/12/23 03:11:07;;;;;;;8.85;3.25;;;14.20;99.90;;;;;;5072415;28;20107;-72
2022/12/23 03:13:44;;;;;;;12.13;3.30;;;14.20;99.90;;;;;;5072317;28;20024;-71
2022/12/23 03:16:10;;;;;;;8.35;2.72;;;14.20;99.90;;;;;;5072144;28;20021;-72
2022/12/23 03:18:57;;;;;;;6.80;3.50;;;14.20;99.90;;;;;;5071911;28;20055;-71
2022/12/23 03:21:37;;;;;;;7.72;3.72;;;14.10;99.90;;;;;;5070863;28;20086;-71
2022/12/23 03:24:13;;;;;;;7.75;3.78;;;14.10;99.90;;;;;;5072249;28;20060;-71
2022/12/23 03:26:46;;;;;;;9.15;3.60;;;14.10;99.90;;;;;;5072005;28;20028;-71
2022/12/23 03:29:24;;;;;;;8.13;4.05;;;14.20;99.90;;;;;;5072051;28;20082;-71
2022/12/23 03:31:52;;;;;;;9.38;3.40;;;14.10;99.90;;;;;;5072163;28;20063;-71
2022/12/23 03:34:21;;;;;;;6.32;3.55;;;14.00;99.90;;;;;;5073791;28;20021;-71
2022/12/23 03:36:57;;;;;;;11.07;4.57;;;14.00;99.90;;;;;;5075804;28;20017;-72
2022/12/23 03:39:28;;;;;;;10.77;4.40;;;13.90;99.90;;;;;;5074379;28;20461;-72
2022/12/23 03:42:00;;;;;;;12.88;4.65;;;13.80;99.90;;;;;;5075725;28;20546;-71
2022/12/23 03:44:35;;;;;;;8.93;4.00;;;14.00;99.90;;;;;;5075670;28;20509;-72
2022/12/23 03:47:12;;;;;;;10.38;3.92;;;14.00;99.90;;;;;;5075577;28;20027;-71
2022/12/23 03:49:47;;;;;;;8.57;3.85;;;14.00;99.90;;;;;;5075230;28;20036;-71
2022/12/23 03:52:20;;;;;;;8.73;3.35;;;13.90;99.90;;;;;;5075396;28;20026;-71
2022/12/23 03:54:58;;;;;;;12.70;4.00;;;13.90;99.90;;;;;;5075617;28;20032;-71
2022/12/23 03:57:42;;;;;;;10.18;3.50;;;14.00;99.90;;;;;;5075296;28;20052;-71
2022/12/23 04:00:08;;;;;;;11.07;4.05;;;14.00;99.90;;;;;;5075621;28;20024;-71
2022/12/23 04:02:55;;;;;;;8.82;3.38;;;13.90;99.90;;;;;;5075474;28;20024;-71
2022/12/23 04:05:26;;;;;;;8.00;3.40;;;14.00;99.90;;;;;;5073729;28;20377;-71
2022/12/23 04:08:04;;;;;;;8.82;3.30;;;14.10;99.90;;;;;;5075363;28;20020;-71
2022/12/23 04:10:30;;;;;;;12.90;3.47;;;14.00;99.90;;;;;;5073828;28;20089;-71
2022/12/23 04:12:56;;;;;;;11.63;4.03;;;14.00;99.90;;;;;;5075191;28;20027;-71
2022/12/23 04:15:24;;;;;;;11.35;3.70;;;13.90;99.90;;;;;;5075217;28;20036;-72
2022/12/23 04:17:51;;;;;;;8.30;2.88;;;14.00;99.90;;;;;;5074795;28;20112;-71
2022/12/23 04:20:17;;;;;;;8.52;3.70;;;14.10;99.90;;;;;;5073696;28;20020;-72
2022/12/23 04:22:43;;;;;;;8.07;2.80;;;14.10;99.90;;;;;;5075003;28;20514;-71
2022/12/23 04:25:13;;;;;;;7.05;2.85;;;14.00;99.90;;;;;;5075214;28;20107;-72
2022/12/23 04:27:39;;;;;;;7.63;2.70;;;13.90;99.90;;;;;;5074960;28;20021;-71
2022/12/23 04:30:06;;;;;;;8.25;2.80;;;13.90;99.90;;;;;;5074821;28;20101;-72
2022/12/23 04:32:32;;;;;;;6.70;2.45;;;14.10;99.90;;;;;;5074353;28;20021;-71
2022/12/23 04:34:57;;;;;;;11.75;2.67;;;14.10;99.90;;;;;;5074882;28;20050;-72
2022/12/23 04:37:23;;;;;;;14.32;3.17;;;14.00;99.90;;;;;;5074896;28;20035;-71
2022/12/23 04:39:49;;;;;;;7.78;3.05;;;13.90;99.90;;;;;;5074825;28;20035;-71
2022/12/23 04:42:14;;;;;;;11.23;2.90;;;13.80;99.90;;;;;;5074674;28;20122;-71
2022/12/23 04:44:40;;;;;;;9.65;3.53;;;13.80;99.90;;;;;;5072824;28;20036;-71
2022/12/23 04:47:05;;;;;;;9.90;2.83;;;14.00;99.90;;;;;;5073693;28;20111;-72
2022/12/23 04:49:31;;;;;;;6.15;2.30;;;14.10;99.90;;;;;;5075713;28;20113;-71
2022/12/23 04:51:57;;;;;;;8.43;2.58;;;14.20;99.90;;;;;;5074464;28;20458;-71
2022/12/23 04:54:22;;;;;;;6.65;1.90;;;14.00;99.90;;;;;;5076361;28;20060;-71
2022/12/23 04:56:48;;;;;;;11.18;3.15;;;14.20;99.90;;;;;;5077155;28;20024;-71
2022/12/23 04:59:13;;;;;;;8.93;2.88;;;14.10;99.90;;;;;;5076717;28;20028;-72
2022/12/23 05:01:41;;;;;;;10.82;2.67;;;13.90;99.90;;;;;;5076999;28;20492;-71
2022/12/23 05:04:06;;;;;;;8.90;2.67;;;13.90;99.90;;;;;;5076455;28;20472;-72
2022/12/23 05:06:32;;;;;;;8.65;2.60;;;13.80;99.90;;;;;;5073954;28;20021;-72
2022/12/23 05:08:58;;;;;;;9.48;2.97;;;13.70;99.90;;;;;;5074230;28;20070;-73
2022/12/23 05:11:23;;;;;;;9.45;2.45;;;13.80;99.90;;;;;;5073987;28;20028;-72
2022/12/23 05:13:49;;;;;;;9.27;2.65;;;13.90;99.90;;;;;;5073998;28;20029;-71
2022/12/23 05:16:14;;;;;;;8.50;2.38;;;13.90;99.90;;;;;;5073834;28;20024;-72
2022/12/23 05:18:40;;;;;;;8.43;3.03;;;13.90;99.90;;;;;;5072727;28;20040;-72
2022/12/23 05:21:05;;;;;;;11.88;2.75;;;13.90;99.90;;;;;;5073902;28;20028;-72
2022/12/23 05:23:31;;;;;;;8.27;2.65;;;13.80;99.90;;;;;;5072663;28;20032;-74
2022/12/23 05:25:56;;;;;;;9.95;2.53;;;13.70;99.90;;;;;;5073641;28;20033;-73
2022/12/23 05:28:22;;;;;;;8.50;2.33;;;13.70;99.90;;;;;;5073832;28;20028;-72
2022/12/23 05:30:48;;;;;;;9.02;2.40;;;13.80;99.90;;;;;;5073253;28;20036;-73
2022/12/23 05:33:14;;;;;;;6.25;1.90;;;13.70;99.90;;;;;;5073743;28;20106;-73
2022/12/23 05:35:39;;;;;;;6.65;2.25;;;13.80;99.90;;;;;;5072073;28;20082;-72
2022/12/23 05:38:05;;;;;;;9.35;2.17;;;13.80;99.90;;;;;;5073696;28;20090;-74
2022/12/23 05:40:31;;;;;;;11.63;2.67;;;14.00;99.90;;;;;;5073350;28;20099;-73
2022/12/23 05:42:56;;;;;;;8.13;2.05;;;13.80;99.90;;;;;;5073842;28;20028;-72
2022/12/23 05:45:22;;;;;;;7.32;2.10;;;13.80;99.90;;;;;;5073026;28;20032;-73
2022/12/23 05:47:47;;;;;;;11.00;2.55;;;13.90;99.90;;;;;;5073364;28;20027;-71
2022/12/23 05:50:13;;;;;;;11.02;2.80;;;13.80;99.90;;;;;;5073257;28;20070;-71
2022/12/23 05:52:39;;;;;;;9.05;2.55;;;13.90;99.90;;;;;;5073457;28;20511;-71
2022/12/23 05:55:05;;;;;;;7.82;2.20;;;13.90;99.90;;;;;;5071838;28;20036;-71
2022/12/23 05:57:31;;;;;;;7.00;2.30;;;14.00;99.90;;;;;;5072989;28;20066;-69
2022/12/23 05:59:57;;;;;;;10.07;2.70;;;14.10;99.90;;;;;;5072756;28;20060;-70
2022/12/23 06:02:23;;;;;;;9.93;3.28;;;14.00;99.90;;;;;;5064002;28;20025;-71
2022/12/23 06:04:48;;;;;;;13.07;3.33;;;14.00;99.90;;;;;;5072606;28;20039;-70
2022/12/23 06:07:15;;;;;;;9.98;2.15;;;14.00;99.90;;;;;;5071011;28;20484;-70
2022/12/23 06:09:40;;;;;;;10.95;2.17;;;14.00;99.90;;;;;;5071360;28;20385;-70
2022/12/23 06:12:06;;;;;;;10.50;1.77;;;14.10;99.90;;;;;;5072950;28;20028;-70
2022/12/23 06:14:31;;;;;;;5.68;1.65;;;14.10;99.90;;;;;;5072789;28;20031;-70
2022/12/23 06:16:57;;;;;;;6.30;2.13;;;14.10;99.70;;;;;;5072729;28;20485;-70
2022/12/23 06:19:23;;;;;;;6.70;2.00;;;14.10;99.80;;;;;;5072977;28;20401;-71
2022/12/23 06:21:48;;;;;;;7.30;1.92;;;14.10;99.60;;;;;;5072565;28;20020;-70
2022/12/23 06:24:14;;;;;;;6.55;2.00;;;14.10;99.70;;;;;;5072588;28;20330;-70
2022/12/23 06:26:41;;;;;;;5.70;1.88;;;14.10;99.50;;;;;;5072627;28;20488;-70
2022/12/23 06:29:07;;;;;;;7.82;2.50;;;14.10;99.50;;;;;;5072650;28;20040;-70
2022/12/23 06:31:33;;;;;;;5.15;2.05;;;14.10;99.50;;;;;;5072357;28;20456;-70
2022/12/23 06:33:58;;;;;;;6.28;2.10;;;14.10;99.70;;;;;;5072817;28;20481;-70
2022/12/23 06:36:24;;;;;;;4.95;1.92;;;14.10;99.60;;;;;;5072455;28;20089;-70
2022/12/23 06:38:49;;;;;;;6.50;2.47;;;14.10;99.70;;;;;;5073067;28;20445;-69
2022/12/23 06:41:15;;;;;;;5.07;2.03;;;14.10;99.70;;;;;;5068972;28;20035;-70
2022/12/23 06:43:41;;;;;;;6.00;2.83;;;14.00;99.80;;;;;;5071204;28;20051;-69
2022/12/23 06:46:06;;;;;;;7.80;2.97;;;14.10;99.80;;;;;;5071827;28;20060;-70
2022/12/23 06:48:32;;;;;;;8.88;2.70;;;14.10;99.70;;;;;;5072561;28;20025;-69
2022/12/23 06:50:57;;;;;;;6.13;2.42;;;14.10;99.90;;;;;;5072329;28;20029;-69
2022/12/23 06:53:23;;;;;;;7.55;3.05;;;14.10;99.90;;;;;;5072515;28;20036;-70
2022/12/23 06:55:49;;;;;;;7.90;2.70;;;14.00;99.90;;;;;;5072401;28;20324;-70
2022/12/23 06:58:14;;;;;;;7.63;2.67;;;14.00;99.90;;;;;;5072359;28;20111;-70
2022/12/23 07:00:40;;;;;;;7.97;2.63;;;13.90;99.90;;;;;;5072610;28;20032;-69
2022/12/23 07:03:05;;;;;;;7.53;2.53;;;13.90;99.90;;;;;;5072716;28;20021;-71
2022/12/23 07:05:33;;;;;;;6.65;2.47;;;13.90;99.90;;;;;;5069436;28;20440;-70
2022/12/23 07:07:58;;;;;;;5.85;2.80;;;13.90;99.90;;;;;;5067014;28;20089;-70
2022/12/23 07:10:24;;;;;;;6.57;2.50;;;14.00;99.90;;;;;;5068841;28;20032;-69
2022/12/23 07:12:49;;;;;;;6.30;2.70;;;13.90;99.90;;;;;;5073412;28;20029;-68
2022/12/23 07:15:15;;;;;;;8.38;2.53;;;13.90;99.90;;;;;;5073918;28;20027;-73
2022/12/23 07:17:40;;;;;;;9.82;2.78;;;13.90;99.90;;;;;;5071955;28;20040;-73
2022/12/23 07:20:07;;;;;;;12.90;2.35;;;13.80;99.90;;;;;;5074853;28;20025;-73
2022/12/23 07:22:33;;;;;;;6.05;2.40;;;14.00;99.90;;;;;;5072406;28;20055;-73
2022/12/23 07:24:58;;;;;;;9.75;3.13;;;14.00;99.90;;;;;;5070941;28;20072;-74
2022/12/23 07:27:24;;;;;;;10.75;2.90;;;13.80;99.90;;;;;;5070987;28;20029;-73
2022/12/23 07:29:49;;;;;;;6.72;3.58;;;13.90;99.90;;;;;;5074573;28;20036;-73
2022/12/23 07:32:15;;;;;;;9.15;4.75;;;13.80;99.90;;;;;;5074195;28;20036;-74
2022/12/23 07:34:40;;;;;;;10.10;3.95;;;13.70;99.90;;;;;;5073734;28;20017;-72
2022/12/23 07:37:06;;;;;;;7.55;2.75;;;13.80;99.90;;;;;;5075290;28;20035;-73
2022/12/23 07:39:33;;;;;;;12.27;3.28;;;14.00;99.90;;;;;;5062732;28;20173;-75
2022/12/23 07:41:58;;;;;;;6.38;3.03;;;14.00;99.90;;;;;;5067423;28;20462;-74
2022/12/23 07:44:24;;;;;;;17.45;4.53;;;13.90;99.90;;;;;;5067152;28;20119;-75
2022/12/23 07:46:50;;;;;;;22.02;3.90;;;14.10;99.90;;;;;;5067890;28;20032;-75
2022/12/23 07:49:15;;;;;;;16.63;3.13;;;14.20;99.90;;;;;;5066457;28;20465;-75
2022/12/23 07:51:41;;;;;;;21.20;4.68;;;14.20;99.90;;;;;;5070372;28;20047;-77
2022/12/23 07:54:06;;;;;;;17.17;4.15;;;14.30;99.90;;;;;;5069642;28;20074;-76
2022/12/23 07:56:32;;;;;;;11.95;3.45;;;14.30;99.90;;;;;;5073420;28;20032;-80
2022/12/23 07:58:57;;;;;;;16.75;4.00;;;14.30;99.90;;;;;;5074474;28;20113;-73
2022/12/23 08:01:23;;;;;;;12.68;3.60;;;14.30;99.90;;;;;;5072309;28;20033;-72
2022/12/23 08:03:48;;;;;;;8.30;4.35;;;14.40;99.90;;;;;;5071298;28;20478;-73
2022/12/23 08:06:15;;;;;;;10.65;4.57;;;14.10;99.90;;;;;;5072129;28;20055;-69
2022/12/23 08:08:43;;;;;;;18.58;8.23;;;13.80;99.90;;;;;;5062608;28;20099;-67
2022/12/23 08:11:10;;;;;;;17.48;6.10;;;13.80;99.90;;;;;;5060517;28;20040;-67
2022/12/23 08:13:38;;;;;;;14.13;5.07;;;13.80;99.90;;;;;;5068315;28;20032;-68
2022/12/23 08:16:06;;;;;;;21.85;4.78;;;13.90;99.90;;;;;;5065625;28;20085;-72
2022/12/23 08:18:34;;;;;;;18.45;3.92;;;14.20;99.90;;;;;;5069175;28;20103;-67
2022/12/23 08:21:02;;;;;;;13.93;3.72;;;14.30;99.90;;;;;;5067336;28;20035;-68
2022/12/23 08:23:30;;;;;;;13.27;3.83;;;14.40;99.90;;;;;;5059758;28;20032;-72
2022/12/23 08:26:10;;;;;;;12.13;4.90;;;14.20;99.90;;;;;;5070680;28;20115;-72
2022/12/23 08:28:37;;;;;;;18.08;4.28;;;14.30;99.90;;;;;;5069645;28;20075;-72
2022/12/23 08:31:04;;;;;;;16.45;3.67;;;14.30;99.90;;;;;;5070013;28;20159;-70
2022/12/23 08:33:29;;;;;;;14.82;3.60;;;14.40;99.90;;;;;;5072766;28;20025;-72
2022/12/23 08:35:55;;;;;;;12.38;3.33;;;14.40;99.90;;;;;;5073447;28;20058;-73
2022/12/23 08:38:21;;;;;;;7.60;3.00;;;14.20;99.90;;;;;;5069576;28;21193;-73
2022/12/23 08:40:47;;;;;;;9.10;3.03;;;14.20;99.90;;;;;;5067128;28;20036;-72
2022/12/23 08:43:12;;;;;;;11.50;3.28;;;14.30;99.90;;;;;;5064883;28;20021;-77
2022/12/23 08:45:38;;;;;;;12.55;4.05;;;14.40;99.90;;;;;;5072393;28;20036;-76
2022/12/23 08:48:07;;;;;;;8.95;4.22;;;14.30;99.90;;;;;;5059951;28;20027;-77
2022/12/23 08:50:41;;;;;;;12.40;4.78;;;14.30;99.90;;;;;;5066550;28;20032;-74
2022/12/23 08:53:08;;;;;;;16.00;5.97;;;14.20;99.90;;;;;;5067224;28;20020;-76
2022/12/23 08:55:43;;;;;;;18.88;7.00;;;14.10;99.90;;;;;;5071236;28;20052;-76
2022/12/23 08:58:10;;;;;;;35.20;8.25;;;14.10;99.90;;;;;;5066389;28;20111;-75
2022/12/23 09:00:36;;;;;;;22.35;8.05;;;14.10;99.90;;;;;;5070162;28;20036;-76
2022/12/23 09:03:02;;;;;;;24.23;7.88;;;13.90;99.90;;;;;;5069387;28;20036;-73
2022/12/23 09:05:28;;;;;;;18.45;8.18;;;13.90;99.90;;;;;;5066579;28;20488;-72
2022/12/23 09:07:54;;;;;;;21.00;7.90;;;13.70;99.90;;;;;;5071363;28;20025;-73
2022/12/23 09:10:20;;;;;;;19.65;7.93;;;13.60;99.90;;;;;;5070755;28;20036;-69
2022/12/23 09:12:45;;;;;;;21.88;8.18;;;13.60;99.90;;;;;;5070968;28;20538;-69
2022/12/23 09:15:11;;;;;;;17.85;7.70;;;13.60;99.90;;;;;;5071700;28;20473;-68
2022/12/23 09:17:37;;;;;;;33.10;9.20;;;13.50;99.90;;;;;;5069640;28;20079;-69
2022/12/23 09:20:03;;;;;;;32.08;8.82;;;13.60;99.90;;;;;;5071755;28;20024;-70
2022/12/23 09:22:31;;;;;;;36.15;11.45;;;13.80;99.90;;;;;;5072877;28;20021;-68
2022/12/23 09:24:57;;;;;;;30.35;11.23;;;13.80;99.90;;;;;;5071256;28;20016;-70
2022/12/23 09:27:22;;;;;;;28.33;9.73;;;13.70;99.90;;;;;;5070693;28;20047;-71
2022/12/23 09:29:48;;;;;;;28.13;9.90;;;13.60;99.90;;;;;;5070443;28;20070;-69
2022/12/23 09:32:14;;;;;;;25.05;10.57;;;13.50;99.90;;;;;;5070578;28;20115;-69
2022/12/23 09:34:39;;;;;;;37.20;12.25;;;13.50;99.90;;;;;;5072216;28;20056;-72
2022/12/23 09:37:05;;;;;;;36.95;14.10;;;13.50;99.90;;;;;;5071159;28;20865;-69
2022/12/23 09:39:30;;;;;;;39.58;10.48;;;13.50;99.90;;;;;;5071566;28;20469;-69
2022/12/23 09:42:25;;;;;;;18.67;8.13;;;13.50;99.90;;;;;;5071644;28;20497;-75
2022/12/23 09:45:12;;;;;;;23.77;7.43;;;13.50;99.90;;;;;;5021522;28;20405;-71
2022/12/23 09:47:40;;;;;;;19.98;7.43;;;13.60;99.90;;;;;;5069325;28;20025;-69
2022/12/23 09:50:20;;;;;;;16.08;5.95;;;13.70;99.90;;;;;;5070601;28;20032;-70
2022/12/23 09:52:58;;;;;;;14.05;5.60;;;13.60;99.90;;;;;;5071938;28;20051;-70
2022/12/23 09:55:48;;;;;;;11.25;5.10;;;13.60;99.90;;;;;;5071615;28;20029;-69
2022/12/23 09:58:27;;;;;;;15.50;5.60;;;13.50;99.90;;;;;;5060204;28;20039;-71
2022/12/23 10:01:14;;;;;;;15.93;6.32;;;13.50;99.90;;;;;;5070758;28;20051;-70
2022/12/23 10:04:04;;;;;;;14.63;5.60;;;13.50;99.90;;;;;;5067543;28;20036;-70
2022/12/23 10:06:32;;;;;;;14.82;5.35;;;13.50;99.90;;;;;;5067101;28;20085;-70
2022/12/23 10:09:01;;;;;;;13.60;5.05;;;13.50;99.90;;;;;;5065491;28;20368;-70
2022/12/23 10:11:31;;;;;;;12.90;5.32;;;13.50;99.90;;;;;;5065644;28;20042;-70
2022/12/23 10:14:01;;;;;;;13.48;5.03;;;13.50;99.90;;;;;;5068273;28;20036;-69
2022/12/23 10:16:40;;;;;;;15.13;5.13;;;13.50;99.90;;;;;;5069949;28;20100;-69
2022/12/23 10:19:28;;;;;;;12.27;5.00;;;13.60;99.90;;;;;;5070912;28;20363;-70
2022/12/23 10:22:00;;;;;;;17.02;5.45;;;13.70;99.90;;;;;;5065252;28;20236;-68
2022/12/23 10:24:33;;;;;;;12.10;4.75;;;13.70;99.90;;;;;;5071607;28;20028;-69
2022/12/23 10:27:17;;;;;;;14.75;5.40;;;13.80;99.90;;;;;;5071155;28;20043;-69
2022/12/23 10:29:42;;;;;;;13.13;4.93;;;13.80;99.90;;;;;;5070892;28;20036;-69
2022/12/23 10:32:27;;;;;;;14.73;4.72;;;13.80;99.90;;;;;;5071391;28;20538;-69
2022/12/23 10:35:02;;;;;;;12.07;4.72;;;13.90;99.90;;;;;;5071134;28;20564;-68
2022/12/23 10:37:49;;;;;;;10.10;4.45;;;13.80;99.90;;;;;;5071248;28;20871;-69
2022/12/23 10:40:45;;;;;;;9.30;4.53;;;13.70;99.90;;;;;;5071378;28;20464;-69
2022/12/23 10:43:25;;;;;;;9.02;4.22;;;13.60;99.90;;;;;;5068352;28;20034;-68
2022/12/23 10:46:01;;;;;;;11.25;4.43;;;13.70;99.90;;;;;;5070280;28;20040;-69
2022/12/23 10:49:03;;;;;;;10.18;4.10;;;13.60;99.90;;;;;;5071236;28;20025;-70
2022/12/23 10:51:45;;;;;;;8.57;3.97;;;13.60;99.90;;;;;;5069889;28;20028;-71
2022/12/23 10:54:21;;;;;;;14.82;3.88;;;13.60;99.90;;;;;;5060546;28;20070;-72
2022/12/23 10:56:47;;;;;;;14.02;4.30;;;13.60;99.90;;;;;;5066195;28;20036;-71
2022/12/23 10:59:15;;;;;;;10.38;4.32;;;13.60;99.90;;;;;;5069030;28;20025;-72
2022/12/23 11:01:46;;;;;;;8.68;4.15;;;13.60;99.90;;;;;;5068915;28;20032;-71
2022/12/23 11:04:22;;;;;;;8.55;4.18;;;13.70;99.90;;;;;;5069185;28;20020;-72
2022/12/23 11:06:50;;;;;;;8.00;4.10;;;13.90;99.90;;;;;;5065236;28;20090;-72
2022/12/23 11:09:21;;;;;;;8.55;3.65;;;14.00;99.90;;;;;;5070493;28;20024;-72
2022/12/23 11:12:02;;;;;;;9.93;4.60;;;14.10;99.90;;;;;;5067706;28;20074;-72
2022/12/23 11:14:40;;;;;;;9.13;4.53;;;14.00;99.90;;;;;;5059747;28;20130;-72
2022/12/23 11:17:18;;;;;;;10.93;5.00;;;13.90;99.90;;;;;;5062481;28;20389;-71
2022/12/23 11:19:44;;;;;;;8.07;4.40;;;13.90;99.90;;;;;;5065226;28;20059;-71
2022/12/23 11:22:22;;;;;;;5.15;4.35;;;13.90;99.90;;;;;;5067604;28;20440;-70
2022/12/23 11:24:47;;;;;;;8.48;4.88;;;13.80;99.90;;;;;;5063687;28;20511;-71
2022/12/23 11:27:17;;;;;;;8.90;4.13;;;14.00;99.90;;;;;;5065060;28;20032;-71
2022/12/23 11:29:49;;;;;;;8.07;4.60;;;14.00;99.90;;;;;;5066502;28;20452;-70
2022/12/23 11:32:26;;;;;;;8.50;4.45;;;13.90;99.90;;;;;;5063105;28;20052;-71
2022/12/23 11:34:54;;;;;;;6.60;4.30;;;13.90;99.90;;;;;;5069254;28;20469;-71
2022/12/23 11:37:35;;;;;;;7.40;4.88;;;13.80;99.90;;;;;;5065816;28;20031;-71
2022/12/23 11:40:05;;;;;;;7.85;4.45;;;13.80;99.90;;;;;;5064982;28;20104;-71
2022/12/23 11:42:33;;;;;;;5.20;4.05;;;13.90;99.90;;;;;;5069023;28;20473;-72
2022/12/23 11:44:59;;;;;;;6.95;4.20;;;14.10;99.90;;;;;;5066257;28;20035;-74
2022/12/23 11:47:37;;;;;;;5.47;3.28;;;14.20;99.90;;;;;;5065162;28;20445;-72
2022/12/23 11:50:23;;;;;;;5.25;3.70;;;14.30;99.90;;;;;;5063236;28;20024;-72
2022/12/23 11:52:53;;;;;;;4.22;2.40;;;14.40;99.90;;;;;;5065567;28;20024;-72
2022/12/23 11:55:31;;;;;;;4.40;3.25;;;14.10;99.90;;;;;;5067379;28;20121;-72
2022/12/23 11:57:58;;;;;;;4.07;2.40;;;14.20;99.90;;;;;;5071059;28;20035;-73
2022/12/23 12:00:48;;;;;;;3.53;2.42;;;14.10;99.90;;;;;;5070464;28;20016;-72
2022/12/23 12:03:18;;;;;;;4.78;2.20;;;14.20;99.90;;;;;;5071948;28;20389;-72
2022/12/23 12:05:51;;;;;;;5.75;2.70;;;14.20;99.90;;;;;;5061154;28;20029;-73
2022/12/23 12:08:24;;;;;;;3.42;2.22;;;14.20;99.90;;;;;;5066569;28;20081;-77
2022/12/23 12:10:55;;;;;;;3.63;2.67;;;14.30;99.90;;;;;;5067708;28;20140;-77
2022/12/23 12:13:49;;;;;;;4.22;2.58;;;14.20;99.90;;;;;;5061984;28;20107;-77
2022/12/23 12:16:46;;;;;;;4.63;3.15;;;14.20;99.90;;;;;;5066431;28;20392;-79
2022/12/23 12:19:19;;;;;;;4.80;2.47;;;14.20;99.90;;;;;;5061390;28;20103;-76
2022/12/23 12:21:48;;;;;;;6.55;2.88;;;14.30;99.90;;;;;;5059276;28;20028;-78
2022/12/23 12:24:39;;;;;;;10.38;2.38;;;14.30;99.90;;;;;;5063559;28;20024;-75
2022/12/23 12:27:06;;;;;;;5.70;2.83;;;14.40;99.90;;;;;;5067642;28;20036;-72
2022/12/23 12:29:45;;;;;;;9.82;2.80;;;14.20;99.90;;;;;;5067972;28;20143;-73
2022/12/23 12:32:19;;;;;;;2.80;2.50;;;14.50;99.90;;;;;;5063307;28;20021;-75
2022/12/23 12:35:26;;;;;;;8.60;2.88;;;14.10;99.90;;;;;;5066567;28;20032;-74
2022/12/23 12:38:03;;;;;;;18.95;2.90;;;13.90;99.90;;;;;;5014760;28;20034;-61
2022/12/23 12:40:39;;;;;;;16.67;3.67;;;14.00;99.90;;;;;;5052834;28;20135;-62
2022/12/23 12:43:30;;;;;;;8.73;2.47;;;14.40;99.90;;;;;;5063454;28;20060;-62
2022/12/23 12:46:20;;;;;;;8.38;2.95;;;15.10;99.90;;;;;;5061182;28;20033;-61
2022/12/23 12:49:10;;;;;;;11.48;2.40;;;15.30;99.90;;;;;;5057002;28;20081;-60
2022/12/23 12:51:53;;;;;;;14.43;2.10;;;15.60;99.90;;;;;;5061227;28;20047;-61
2022/12/23 12:54:33;;;;;;;9.20;2.30;;;15.90;99.90;;;;;;5055206;28;20794;-61
2022/12/23 12:56:58;;;;;;;14.45;2.28;;;16.40;99.90;;;;;;5056094;28;20024;-62
2022/12/23 12:59:28;;;;;;;6.28;1.65;;;16.70;99.90;;;;;;5048800;28;20029;-60
2022/12/23 13:02:12;;;;;;;7.20;1.80;;;16.80;99.90;;;;;;5059122;28;20036;-61
2022/12/23 13:05:15;;;;;;;8.07;1.70;;;16.70;99.90;;;;;;5065980;28;20028;-63
2022/12/23 13:07:46;;;;;;;;;;;16.90;99.90;;;;;;5057309;28;20066;-61
2022/12/23 13:10:23;;;;;;;6.65;2.20;;;17.10;99.90;;;;;;5056517;28;20404;-69
2022/12/23 13:12:56;;;;;;;6.90;1.80;;;17.10;99.90;;;;;;5054654;28;20016;-62
2022/12/23 13:15:46;;;;;;;3.90;1.20;;;17.10;99.90;;;;;;5055789;28;20028;-62
2022/12/23 13:18:56;;;;;;;11.27;1.50;;;17.00;99.90;;;;;;5051510;28;20036;-61
2022/12/23 13:21:54;;;;;;;4.82;1.35;;;17.00;99.90;;;;;;5051939;28;20050;-61
2022/12/23 13:24:48;;;;;;;4.93;1.23;;;16.40;99.90;;;;;;5045753;28;20127;-65
2022/12/23 13:27:36;;;;;;;6.78;0.90;;;16.50;99.90;;;;;;5058901;28;20041;-61
2022/12/23 13:30:12;;;;;;;4.50;1.20;;;16.30;99.90;;;;;;5057993;28;20093;-61